General Mitchell International Airport
KMKE : now visible

Airfield :











YOU CAN JOIN US ON...

 
LOGIN :

Register | Disclaimer

   EN    FR    IT 

 









Legend :    VFR   Marginal VFR   IFR   Intensive IFR   Very Intensive IFR
Visi :
Ceiling :
>= 8 km
>= 3000ft
5 to 8 km
1000 to 3000 ft
1500m to 5 km
500 to 1000 ft
800 to 1500m
200 to 500 ft
< 800m
< 200 ft
Symbols :   Thunderstorms  Fog  Heavy snow  Heavy precipitations  Wind > 20 kt






- Airport Elevation : 723 ft
- IATA code : MKE


KMKE - General Mitchell International

CURRENT METAR :
  • 201052Z 35007KT 10SM OVC034 03/M03 A3027 RMK AO2 SLP256 T00281028

EXPIRED METARs :
  • 200952Z 01005KT 10SM OVC034 03/M04 A3027 RMK AO2 SLP257 T00331044
  • 200852Z 35008KT 10SM OVC035 03/M06 A3027 RMK AO2 SLP257 T00331056 53008

TAF KMKE
Valid from the 20 at 09:00 until the 21 at 12:00 UTC


200839Z 2009/2112 35004KT P6SM BKN040
FM201700 10010KT P6SM OVC029
FM210200 14009KT 5SM -SHRA BR OVC013
FM210400 17008KT 4SM -SHRA BR OVC009
FM210500 20008KT 6SM -SHRA BR OVC012
FM211100 27010KT P6SM BKN035
KZAU FIR / North America



MET'MAP, your aeronautical weather chart ! - Copyright ORBIFLY December 2007 - Disclaimer

ORBIFLY MET'MAP TEAM :

Programming & Development : Alexandra Zaïnal
Concept & original design : Baudouin d'Aumeries
Assistance for programming : Marc-Olivier Méhu
Technical & hardware support : Manuel Goepfert

Contact : metmap@orbifly.com




SOURCES & CREDITS :

   NOAA       Earth
Advisory